Rejestracja

Wszystkie dane podawane są w czasie UTC za wyjątkiem miejsc gdzie jest jednoznacznie podane, że jest inaczej. Dane podawane w serwisie mają charakter informacyjny!!!
Informacje w sprawie dostępu do serwisu pod numerem tel. +48 261-828-559 lub +48 261-828-138
Informacja dla żołnierzy i pracowników wojska: Prosimy o niezwłoczną zmianę adresu e-mail w profilu użytkownika na pocztę w domenie @ron.mil.pl
Brak służbowego adresu e-mail skutkuje usunięciem konta.

Aktualna Pogoda
 
Pogoda w Polsce
11°C Szczecin 7°C Suwałki 7°C Warszawa 5°C Poznan
3°C Opole 5°C Kraków 4°C Rzeszów
Więcej miast w Polsce

Pogoda w Europie
13°C Berlin 13°C Paryz 11°C Bruksela 9°C Oslo
7°C Praga 10°C Zagrzeb
Więcej miast w Europie

Metary wojskowe test
METAR EPCE 312330Z 18008KT 140V220 7000 OVC008 05/04 Q1021 RMK 053 091 8/8=
METAR EPDA 010000Z 16010KT 120V190 9000 OVC008 08/07 Q1019 RMK 082 090 8/8=
METAR EPDE 010000Z AUTO 12002KT 5000 06/06 Q1024 RMK 062 096 ///=
METAR EPIR 010000Z AUTO 12012KT VV009 06/04 Q1022 RMK 056 090 ///=
METAR EPKS 312330Z 11012KT 0300 R29/1200N FG OVC002 05/05 Q1021 RMK 051 100 8/8=
METAR EPLK 010000Z 15006KT 5000 BR OVC003 05/05 Q1023 RMK 051 100 8/8=
METAR EPLY 010000Z AUTO 18006KT VV007 06/05 Q1023 RMK 063 093 ///=
METAR EPMB 010000Z 18009KT 9999 OVC007 07/06 Q1023 RMK 069 093 8/8=
METAR EPMI 010000Z 14010KT 6000 OVC006 08/07 Q1019 RMK 079 095 8/8=
METAR EPMM 010000Z 11003KT 0400 R26/0400N FG VV/// 01/01 Q1024 RMK 013 100 //=
METAR EPOK 010000Z 17013KT 9999 OVC008 07/05 Q1021 RMK 066 088 8/8=
METAR EPPR 010000Z AUTO 16008KT VV011 07/04 Q1022 RMK 066 083 ///=
METAR EPPW 010000Z 14010KT 2000 BR OVC003 06/06 Q1022 RMK 057 100 8/8=
METAR EPSN 010000Z 15010KT 9999 OVC007 09/08 Q1018 RMK 087 096 8/8=
METAR EPTM 010000Z AUTO 15002KT ///001 ///013 02/00 Q1024 RMK 015 092 ///=


 

Prawa autorskie©2007 SSH SZ RP. Wszelkie prawa zastrzeżone.